Time;durP1;ratioP1;P1;durP2;ratioP2;P2;SDS_P1;SDS_P2;PMS_P1;PMS_P2;Temp;Humidity;BMP_temperature;BMP_pressure;BME280_temperature;BME280_humidity;BME280_pressure;Samples;Min_cycle;Max_cycle;Signal;HPM_P1;HPM_P2
2022/09/26 00:01:35;;;;;;;4.07;1.90;;;;;;;17.23;62.46;98919.81;6130717;23;20173;-89
2022/09/26 00:04:24;;;;;;;2.87;2.07;;;;;;;17.24;61.56;98905.63;6130882;23;20263;-90
2022/09/26 00:06:54;;;;;;;4.37;2.37;;;;;;;17.27;61.24;98915.13;6156493;23;20211;-89
2022/09/26 00:09:20;;;;;;;3.80;1.80;;;;;;;17.23;61.06;98909.22;6130525;23;20193;-89
2022/09/26 00:11:49;;;;;;;4.13;2.17;;;;;;;17.11;61.43;98908.44;6141554;23;20185;-90
2022/09/26 00:14:25;;;;;;;3.27;1.80;;;;;;;17.10;61.45;98912.06;6156242;23;20228;-90
2022/09/26 00:16:52;;;;;;;3.03;1.73;;;;;;;17.08;61.29;98913.16;6131615;23;20513;-90
2022/09/26 00:19:19;;;;;;;3.10;2.10;;;;;;;17.06;61.25;98925.66;6156250;23;20150;-90
2022/09/26 00:21:46;;;;;;;4.57;1.93;;;;;;;16.89;61.18;98923.56;6156066;23;20154;-89
2022/09/26 00:24:17;;;;;;;3.47;1.80;;;;;;;16.78;61.76;98907.72;6130047;23;20190;-89
2022/09/26 00:26:44;;;;;;;6.17;1.90;;;;;;;16.83;61.67;98916.13;6155100;23;20237;-89
2022/09/26 00:29:13;;;;;;;2.83;1.73;;;;;;;16.81;61.47;98918.91;6156377;23;20154;-88
2022/09/26 00:31:47;;;;;;;3.20;2.07;;;;;;;16.82;61.43;98923.25;6154358;23;20167;-89
2022/09/26 00:34:19;;;;;;;4.03;2.10;;;;;;;16.80;61.44;98925.16;6155287;23;20207;-88
2022/09/26 00:36:46;;;;;;;3.93;2.30;;;;;;;16.78;61.21;98920.94;6155243;23;20147;-88
2022/09/26 00:39:13;;;;;;;4.13;1.90;;;;;;;16.80;61.36;98916.38;6156004;23;20597;-89
2022/09/26 00:41:39;;;;;;;4.13;2.33;;;;;;;16.96;60.81;98922.09;6154695;23;20174;-89
2022/09/26 00:44:40;;;;;;;5.17;1.83;;;;;;;16.89;60.72;98911.19;6155667;23;20180;-89
2022/09/26 00:47:29;;;;;;;4.30;1.80;;;;;;;16.81;60.89;98910.13;6154943;23;20162;-89
2022/09/26 00:50:06;;;;;;;4.87;2.17;;;;;;;16.87;60.60;98915.75;6155895;23;20138;-89
2022/09/26 00:52:42;;;;;;;4.03;2.10;;;;;;;16.85;60.40;98916.84;6156060;23;20200;-89
2022/09/26 00:55:13;;;;;;;3.57;1.80;;;;;;;16.86;60.20;98910.56;6130158;23;20175;-89
2022/09/26 00:57:52;;;;;;;4.97;2.03;;;;;;;16.75;60.37;98915.91;6130038;23;20157;-89
2022/09/26 01:00:18;;;;;;;3.63;2.10;;;;;;;16.68;60.15;98918.22;6155079;23;20141;-89
2022/09/26 01:02:57;;;;;;;7.20;2.03;;;;;;;16.68;59.92;98920.88;6155393;23;20578;-90
2022/09/26 01:05:24;;;;;;;4.00;2.17;;;;;;;16.65;60.13;98912.31;6154685;23;20153;-90
2022/09/26 01:07:53;;;;;;;6.37;2.47;;;;;;;16.64;59.89;98915.94;6154167;23;20168;-90
2022/09/26 01:10:18;;;;;;;3.80;2.00;;;;;;;16.60;59.32;98920.63;6154241;23;20600;-90
2022/09/26 01:12:44;;;;;;;3.30;2.07;;;;;;;16.50;59.48;98911.72;6155539;23;20166;-90
2022/09/26 01:15:11;;;;;;;4.07;1.97;;;;;;;16.38;59.55;98910.88;6130081;23;20181;-90
2022/09/26 01:17:41;;;;;;;3.73;2.10;;;;;;;16.33;60.09;98909.56;6155435;23;20175;-89
2022/09/26 01:20:43;;;;;;;3.00;1.70;;;;;;;16.29;60.23;98910.78;6106053;23;20146;-88
2022/09/26 01:23:33;;;;;;;4.17;2.00;;;;;;;16.26;60.26;98906.59;6154964;23;20626;-89
2022/09/26 01:26:46;;;;;;;2.50;1.60;;;;;;;16.34;60.00;98909.47;6155641;23;20224;-89
2022/09/26 01:29:53;;;;;;;4.17;1.70;;;;;;;16.43;59.80;98906.06;6155630;23;20153;-89
2022/09/26 01:32:50;;;;;;;3.33;1.90;;;;;;;16.29;59.75;98909.00;6037963;23;20156;-89
2022/09/26 01:36:00;;;;;;;3.73;1.93;;;;;;;16.30;59.78;98901.91;6037540;23;20160;-89
2022/09/26 01:38:43;;;;;;;5.53;2.00;;;;;;;16.16;60.22;98896.84;6155766;23;20173;-90
2022/09/26 01:41:36;;;;;;;5.43;3.03;;;;;;;16.03;60.26;98893.50;6155682;23;20136;-90
2022/09/26 01:44:38;;;;;;;3.17;2.00;;;;;;;15.99;60.02;98900.81;6129292;23;20180;-90
2022/09/26 01:47:27;;;;;;;4.73;2.30;;;;;;;16.10;59.72;98898.19;6155743;23;20199;-90
2022/09/26 01:50:20;;;;;;;6.60;2.13;;;;;;;16.16;59.11;98894.22;6155370;23;20548;-89
2022/09/26 01:53:02;;;;;;;6.03;1.80;;;;;;;16.02;59.37;98887.38;6129509;23;20228;-90
2022/09/26 01:55:44;;;;;;;3.33;1.87;;;;;;;16.06;59.26;98895.91;6130236;23;20215;-90
2022/09/26 01:58:25;;;;;;;3.87;2.00;;;;;;;16.13;58.81;98903.22;6155136;23;20282;-89
2022/09/26 02:01:07;;;;;;;5.23;1.80;;;;;;;16.25;58.23;98907.53;6155668;23;20136;-90
2022/09/26 02:03:38;;;;;;;2.87;1.47;;;;;;;16.21;58.16;98911.41;6154727;23;20517;-90
2022/09/26 02:06:14;;;;;;;4.40;1.73;;;;;;;16.09;58.06;98904.41;6128102;23;20473;-89
2022/09/26 02:08:44;;;;;;;2.20;1.60;;;;;;;16.09;58.02;98909.72;6155387;23;20140;-90
2022/09/26 02:11:15;;;;;;;3.13;1.90;;;;;;;15.99;57.75;98900.81;6155300;23;20168;-90
2022/09/26 02:14:12;;;;;;;5.07;2.00;;;;;;;15.89;58.06;98895.41;6155017;23;20275;-90
2022/09/26 02:16:45;;;;;;;3.47;2.07;;;;;;;15.85;58.06;98903.72;6155972;23;20529;-90
2022/09/26 02:19:14;;;;;;;4.67;2.20;;;;;;;15.90;57.96;98905.03;6155549;23;20545;-91
2022/09/26 02:21:41;;;;;;;2.70;1.47;;;;;;;15.78;58.47;98905.97;6155885;23;20162;-89
2022/09/26 02:24:07;;;;;;;3.40;2.07;;;;;;;15.80;58.46;98909.34;6155401;23;20649;-91
2022/09/26 02:26:32;;;;;;;3.33;1.90;;;;;;;15.74;58.44;98904.53;6155566;23;20155;-90
2022/09/26 02:28:59;;;;;;;3.73;1.83;;;;;;;15.66;58.46;98909.56;6129654;23;20484;-89
2022/09/26 02:31:29;;;;;;;3.73;2.07;;;;;;;15.59;58.25;98907.53;6154556;23;20215;-89
2022/09/26 02:33:55;;;;;;;3.27;1.90;;;;;;;15.57;58.40;98909.41;6129689;23;20152;-90
2022/09/26 02:36:21;;;;;;;3.77;1.70;;;;;;;15.57;58.38;98906.78;6155793;23;20162;-90
2022/09/26 02:38:47;;;;;;;3.97;1.70;;;;;;;15.54;58.82;98912.31;6155483;23;20210;-90
2022/09/26 02:41:49;;;;;;;5.40;2.10;;;;;;;15.42;59.21;98900.84;6155461;23;20569;-89
2022/09/26 02:44:39;;;;;;;4.13;2.10;;;;;;;15.41;59.48;98893.03;6144593;23;20672;-90
2022/09/26 02:47:19;;;;;;;3.70;2.00;;;;;;;15.42;59.11;98902.63;6156137;23;20139;-89
2022/09/26 02:50:07;;;;;;;3.50;1.87;;;;;;;15.34;59.00;98893.50;6129723;23;20143;-90
2022/09/26 02:52:52;;;;;;;3.43;1.83;;;;;;;15.24;59.17;98881.09;6155463;23;20154;-91
2022/09/26 02:55:39;;;;;;;4.17;1.90;;;;;;;15.20;59.12;98885.78;6129688;23;20535;-91
2022/09/26 02:58:21;;;;;;;3.93;2.03;;;;;;;15.11;59.51;98878.56;6155785;23;20143;-91
2022/09/26 03:01:03;;;;;;;3.50;1.70;;;;;;;15.06;60.19;98891.25;6155431;23;20189;-90
2022/09/26 03:03:51;;;;;;;4.10;2.20;;;;;;;14.96;60.60;98887.63;6155984;23;20229;-90
2022/09/26 03:06:19;;;;;;;4.03;1.93;;;;;;;15.02;60.52;98884.50;6156095;23;20135;-90
2022/09/26 03:08:48;;;;;;;3.93;1.90;;;;;;;15.09;59.99;98877.84;6130843;23;20181;-89
2022/09/26 03:11:20;;;;;;;3.40;1.67;;;;;;;15.10;60.18;98882.16;6135968;23;20254;-89
2022/09/26 03:13:46;;;;;;;4.13;1.83;;;;;;;15.07;60.41;98882.38;6156118;23;20151;-91
2022/09/26 03:16:13;;;;;;;5.57;1.90;;;;;;;15.00;60.43;98875.88;6157269;23;20158;-92
2022/09/26 03:18:49;;;;;;;4.20;2.10;;;;;;;15.09;60.33;98879.63;6157242;23;20531;-91
2022/09/26 03:21:14;;;;;;;3.57;1.97;;;;;;;15.27;59.76;98876.44;6156063;23;20193;-91
2022/09/26 03:23:41;;;;;;;4.63;2.13;;;;;;;15.36;59.50;98875.72;6156067;23;20611;-90
2022/09/26 03:26:10;;;;;;;3.63;1.93;;;;;;;15.36;59.29;98878.38;6156205;23;20170;-91
2022/09/26 03:28:35;;;;;;;3.67;2.00;;;;;;;15.22;59.54;98885.69;6157495;23;20147;-90
2022/09/26 03:31:00;;;;;;;5.03;2.13;;;;;;;15.19;59.80;98878.81;6157433;23;20213;-90
2022/09/26 03:33:26;;;;;;;5.47;1.83;;;;;;;15.29;59.74;98884.25;6157830;23;20554;-90
2022/09/26 03:35:52;;;;;;;5.23;2.50;;;;;;;15.35;59.47;98892.56;6155965;23;20221;-91
2022/09/26 03:38:17;;;;;;;4.03;2.50;;;;;;;15.27;59.06;98894.94;6155866;23;20155;-90
2022/09/26 03:40:45;;;;;;;4.93;2.10;;;;;;;15.21;59.25;98883.97;6156977;23;20151;-89
2022/09/26 03:43:12;;;;;;;3.87;1.80;;;;;;;15.18;59.21;98879.78;6156196;23;20179;-90
2022/09/26 03:45:40;;;;;;;4.27;2.30;;;;;;;15.21;59.22;98884.81;6157374;23;20147;-89
2022/09/26 03:48:06;;;;;;;2.93;1.77;;;;;;;15.18;59.43;98890.34;6156848;23;20222;-90
2022/09/26 03:50:33;;;;;;;5.40;1.90;;;;;;;15.11;59.73;98889.13;6157568;23;20151;-90
2022/09/26 03:53:00;;;;;;;3.73;1.80;;;;;;;15.05;59.85;98883.44;6156920;23;20144;-90
2022/09/26 03:55:28;;;;;;;3.50;2.40;;;;;;;15.01;60.02;98890.75;6155707;23;20159;-90
2022/09/26 03:57:54;;;;;;;3.60;1.80;;;;;;;15.18;59.69;98884.19;6156721;23;20147;-89
2022/09/26 04:00:20;;;;;;;3.13;1.80;;;;;;;15.13;60.12;98892.47;6155447;23;20155;-90
2022/09/26 04:02:47;;;;;;;4.17;2.07;;;;;;;15.10;60.19;98895.34;6156639;23;20186;-89
2022/09/26 04:05:15;;;;;;;4.60;2.10;;;;;;;15.06;60.56;98888.63;6156099;23;20178;-90
2022/09/26 04:07:43;;;;;;;5.00;2.10;;;;;;;15.15;59.89;98890.56;6156357;23;20217;-89
2022/09/26 04:10:11;;;;;;;3.60;1.97;;;;;;;15.23;59.79;98882.06;6156335;23;20174;-89
2022/09/26 04:12:37;;;;;;;4.20;2.17;;;;;;;15.14;60.36;98870.41;6155022;23;20207;-89
2022/09/26 04:15:05;;;;;;;4.70;2.27;;;;;;;15.14;59.96;98872.22;6156285;23;20159;-89
2022/09/26 04:17:32;;;;;;;3.63;1.97;;;;;;;15.10;59.83;98871.59;6156178;23;20147;-89
2022/09/26 04:32:56;;;;;;;3.73;2.20;;;;;;;15.16;59.82;98875.56;6163065;23;20185;-95
2022/09/26 04:35:26;;;;;;;3.47;2.10;;;;;;;15.11;60.08;98877.72;6130414;23;20157;-93
2022/09/26 04:37:52;;;;;;;3.23;1.93;;;;;;;15.14;60.06;98883.63;6129036;23;20540;-92
2022/09/26 04:40:21;;;;;;;4.33;2.40;;;;;;;15.13;59.87;98881.91;6155069;23;20151;-93
2022/09/26 04:42:52;;;;;;;7.53;2.00;;;;;;;15.02;60.10;98881.88;6131149;23;20196;-93
2022/09/26 04:45:21;;;;;;;4.67;2.33;;;;;;;15.07;60.04;98882.38;6156701;23;20131;-92
2022/09/26 04:51:16;;;;;;;2.90;1.70;;;;;;;15.05;59.83;98879.00;6155193;23;20592;-93
2022/09/26 04:53:48;;;;;;;4.60;2.53;;;;;;;15.02;60.26;98873.09;6130872;23;20222;-94
2022/09/26 04:56:26;;;;;;;5.07;2.70;;;;;;;15.01;60.27;98874.94;6156522;23;20205;-93
2022/09/26 04:58:55;;;;;;;5.00;2.47;;;;;;;15.13;59.55;98875.78;6153881;23;20135;-91
2022/09/26 05:01:28;;;;;;;3.77;2.30;;;;;;;15.18;59.08;98878.91;6130414;23;20514;-93
2022/09/26 05:03:56;;;;;;;9.53;3.00;;;;;;;15.21;58.69;98879.53;6155733;23;20167;-95
2022/09/26 05:42:00;;;;;;;4.27;2.10;;;;;;;16.58;56.05;98875.78;5662982;25;20238;-91
2022/09/26 05:44:32;;;;;;;5.73;2.40;;;;;;;16.86;55.28;98873.50;5762454;24;20560;-92
2022/09/26 05:47:04;;;;;;;4.07;2.20;;;;;;;17.07;54.81;98882.34;5897249;24;20572;-93
2022/09/26 05:49:41;;;;;;;3.17;2.00;;;;;;;17.17;54.94;98873.50;5898197;24;20305;-93
2022/09/26 05:52:08;;;;;;;5.53;2.30;;;;;;;17.29;55.20;98873.44;5901057;24;20194;-90
2022/09/26 05:54:41;;;;;;;4.77;2.13;;;;;;;17.45;54.68;98876.50;6014724;23;20271;-91
2022/09/26 05:57:07;;;;;;;2.90;1.50;;;;;;;17.75;52.85;98864.13;6013198;23;20591;-90
2022/09/26 05:59:35;;;;;;;3.13;1.70;;;;;;;17.98;52.49;98864.78;6037293;23;20161;-91
2022/09/26 06:02:04;;;;;;;4.07;2.37;;;;;;;18.10;52.61;98865.53;6091479;23;20181;-89
2022/09/26 06:04:32;;;;;;;2.63;1.53;;;;;;;18.24;52.42;98858.03;6155060;23;20175;-89
2022/09/26 06:07:00;;;;;;;4.37;1.90;;;;;;;18.50;51.44;98854.94;6128483;23;20193;-89
2022/09/26 06:09:25;;;;;;;4.67;2.10;;;;;;;18.83;50.26;98868.66;6155847;23;20162;-89
2022/09/26 06:12:23;;;;;;;;;;;;;;;;;;;;;
2022/09/26 06:14:52;;;;;;;4.67;2.33;;;;;;;19.82;47.75;98862.97;6155002;23;20238;-88
2022/09/26 06:17:22;;;;;;;3.73;2.10;;;;;;;20.39;46.57;98856.56;6155001;23;20147;-89
2022/09/26 06:19:48;;;;;;;4.93;1.73;;;;;;;21.04;45.20;98859.91;6155432;23;20547;-89
2022/09/26 06:22:14;;;;;;;5.00;2.20;;;;;;;21.67;43.75;98847.25;6155385;23;20217;-89
2022/09/26 06:24:39;;;;;;;4.77;2.27;;;;;;;22.43;41.11;98840.94;6155117;23;20182;-88
2022/09/26 06:27:05;;;;;;;7.67;3.20;;;;;;;23.10;40.43;98836.41;6129872;23;20158;-89
2022/09/26 06:30:03;;;;;;;;;;;;;;;;;;;;;
2022/09/26 06:32:31;;;;;;;7.43;3.23;;;;;;;24.41;37.49;98840.34;6155147;23;20234;-89
2022/09/26 06:35:01;;;;;;;12.57;4.20;;;;;;;24.53;36.38;98843.44;6129363;23;20203;-90
2022/09/26 06:37:27;;;;;;;11.13;3.47;;;;;;;24.42;36.33;98835.81;6155097;23;20147;-90
2022/09/26 06:40:00;;;;;;;6.67;2.93;;;;;;;24.14;36.50;98845.31;6155526;23;20238;-90
2022/09/26 06:42:32;;;;;;;4.83;2.43;;;;;;;23.85;36.99;98841.34;6130939;23;20175;-89
2022/09/26 06:44:58;;;;;;;4.43;2.20;;;;;;;23.72;38.58;98842.88;6157506;23;20150;-89
2022/09/26 06:47:23;;;;;;;4.47;2.17;;;;;;;23.77;38.23;98841.38;6131856;23;20155;-89
2022/09/26 06:49:49;;;;;;;10.70;3.40;;;;;;;24.19;38.40;98850.97;6156619;23;20210;-89
2022/09/26 06:52:14;;;;;;;8.63;2.50;;;;;;;24.76;35.86;98855.06;6130416;23;20184;-88
2022/09/26 06:54:40;;;;;;;21.27;7.83;;;;;;;25.21;34.91;98842.69;6156899;23;20143;-88
2022/09/26 06:57:06;;;;;;;21.07;6.93;;;;;;;25.54;35.12;98838.72;6157294;23;20151;-89
2022/09/26 06:59:31;;;;;;;8.73;3.23;;;;;;;25.75;33.69;98838.00;6131447;23;20155;-88
2022/09/26 07:01:56;;;;;;;9.33;3.03;;;;;;;25.90;34.62;98833.47;6157233;23;20293;-88
2022/09/26 07:04:26;;;;;;;5.30;2.40;;;;;;;26.17;34.40;98830.19;6156982;23;20179;-88
2022/09/26 07:06:52;;;;;;;4.57;1.50;;;;;;;26.55;33.34;98828.97;6157027;23;20205;-89
2022/09/26 07:09:18;;;;;;;2.77;1.30;;;;;;;26.95;32.51;98835.66;6156981;23;20151;-88
2022/09/26 07:11:49;;;;;;;3.70;1.80;;;;;;;27.33;32.77;98834.34;6154425;23;20693;-89
2022/09/26 07:14:17;;;;;;;2.57;1.37;;;;;;;27.49;30.49;98841.34;6128824;23;20226;-88
2022/09/26 07:16:43;;;;;;;2.37;1.13;;;;;;;27.64;31.15;98852.03;6154637;23;20162;-88
2022/09/26 07:19:10;;;;;;;3.00;1.50;;;;;;;27.80;31.06;98852.56;6154667;23;20148;-88
2022/09/26 07:21:36;;;;;;;2.50;1.33;;;;;;;27.92;30.89;98850.16;6154943;23;20217;-88
2022/09/26 07:24:02;;;;;;;6.83;1.40;;;;;;;27.71;29.56;98847.50;6154659;23;20610;-88
2022/09/26 07:26:28;;;;;;;3.60;1.37;;;;;;;27.22;30.42;98837.59;6156182;23;20151;-88
2022/09/26 07:28:53;;;;;;;6.10;1.30;;;;;;;27.12;30.75;98830.88;6130503;23;20155;-89
2022/09/26 07:31:19;;;;;;;2.50;1.20;;;;;;;27.04;30.75;98822.91;6156826;23;20234;-88
2022/09/26 07:33:45;;;;;;;2.67;1.40;;;;;;;27.06;30.21;98827.09;6130979;23;20661;-89
2022/09/26 07:36:10;;;;;;;5.40;1.80;;;;;;;26.85;31.46;98827.06;6131106;23;20601;-88
2022/09/26 07:38:36;;;;;;;5.20;1.80;;;;;;;26.75;31.29;98808.53;6152226;23;20243;-88
2022/09/26 07:41:01;;;;;;;3.60;2.00;;;;;;;26.80;31.56;98814.22;6129760;23;20242;-88
2022/09/26 07:43:27;;;;;;;3.30;1.93;;;;;;;26.84;32.20;98810.09;6155319;23;20182;-89
2022/09/26 07:51:22;;;;;;;3.10;1.90;;;;;;;26.42;32.58;98803.78;6155345;23;20222;-89
2022/09/26 07:53:47;;;;;;;3.00;1.80;;;;;;;26.29;33.08;98809.00;6155118;23;20147;-88
2022/09/26 07:56:13;;;;;;;3.83;1.50;;;;;;;26.13;33.46;98805.53;6155461;23;20217;-89
2022/09/26 07:58:42;;;;;;;2.77;1.30;;;;;;;26.13;34.46;98812.75;6155397;23;20151;-89
2022/09/26 08:01:10;;;;;;;2.90;1.23;;;;;;;26.21;34.95;98810.78;6155395;23;20507;-88
2022/09/26 08:03:41;;;;;;;3.37;1.37;;;;;;;26.27;34.13;98803.84;6130102;23;20581;-89
2022/09/26 08:06:07;;;;;;;2.07;1.30;;;;;;;26.35;33.99;98797.53;6156390;23;20162;-89
2022/09/26 08:08:36;;;;;;;2.70;1.67;;;;;;;26.23;34.99;98803.38;6155960;23;20223;-89
2022/09/26 08:11:02;;;;;;;2.60;1.53;;;;;;;26.39;35.11;98813.06;6155937;23;20158;-88
2022/09/26 08:13:30;;;;;;;6.60;2.30;;;;;;;26.54;34.32;98815.75;6155593;23;20250;-88
2022/09/26 08:16:02;;;;;;;5.13;1.90;;;;;;;26.66;33.57;98812.38;6130511;23;20159;-93
2022/09/26 08:18:28;;;;;;;2.85;1.40;;;;;;;26.81;33.77;98798.88;6130708;23;20234;-95
2022/09/26 08:20:53;;;;;;;4.40;1.60;;;;;;;26.92;33.95;98809.13;6131052;23;20622;-94
2022/09/26 08:23:20;;;;;;;3.20;1.50;;;;;;;26.69;33.78;98809.28;6130706;23;20626;-93
2022/09/26 08:25:45;;;;;;;3.90;1.40;;;;;;;26.79;33.59;98804.47;6131415;23;20148;-92
2022/09/26 08:28:11;;;;;;;3.43;1.63;;;;;;;26.97;33.61;98806.69;6130748;23;20159;-92
2022/09/26 08:30:38;;;;;;;2.83;1.83;;;;;;;27.19;33.30;98794.91;6130965;23;20236;-93
2022/09/26 08:33:04;;;;;;;2.85;1.67;;;;;;;27.08;32.23;98794.59;6130440;23;20182;-94
2022/09/26 08:35:35;;;;;;;2.08;1.15;;;;;;;26.50;33.51;98792.94;6131191;23;20210;-94
2022/09/26 08:38:02;;;;;;;3.03;1.40;;;;;;;26.39;33.64;98790.75;6131352;23;20154;-91
2022/09/26 08:40:45;;;;;;;2.93;1.20;;;;;;;26.69;34.01;98782.41;6130596;23;20468;-92
2022/09/26 08:43:28;;;;;;;2.58;1.38;;;;;;;26.73;34.07;98764.00;6130212;23;20179;-91
2022/09/26 08:48:57;;;;;;;4.07;1.63;;;;;;;27.06;33.43;98764.38;6110275;23;20429;-92
2022/09/26 08:51:38;;;;;;;2.92;1.33;;;;;;;27.24;33.92;98762.84;6156383;23;20147;-90
2022/09/26 08:54:12;;;;;;;3.00;1.33;;;;;;;27.44;34.62;98752.25;6130281;23;20150;-94
2022/09/26 08:56:59;;;;;;;1.83;1.13;;;;;;;27.23;34.20;98760.34;6131222;23;20151;-93
2022/09/26 08:59:28;;;;;;;3.47;1.75;;;;;;;27.48;33.89;98750.84;6130857;23;20139;-93
2022/09/26 09:02:05;;;;;;;3.92;1.65;;;;;;;27.64;34.27;98741.63;6130829;23;20182;-93
2022/09/26 09:04:40;;;;;;;3.53;1.88;;;;;;;28.07;33.96;98731.50;6108065;23;20179;-93
2022/09/26 09:07:22;;;;;;;3.95;1.30;;;;;;;28.23;32.66;98726.56;6130829;23;20147;-93
2022/09/26 09:09:50;;;;;;;4.50;1.70;;;;;;;28.40;33.58;98722.47;6107825;23;20158;-94
2022/09/26 09:12:59;;;;;;;3.08;1.40;;;;;;;28.49;33.11;98729.34;6130348;23;20238;-93
2022/09/26 09:15:56;;;;;;;5.53;1.67;;;;;;;28.53;32.67;98727.91;6038167;23;20237;-91
2022/09/26 09:18:43;;;;;;;2.83;1.50;;;;;;;28.37;32.82;98717.50;6129942;23;20143;-92
2022/09/26 09:21:24;;;;;;;3.33;1.20;;;;;;;28.38;34.06;98711.06;6130248;23;20151;-91
2022/09/26 09:24:08;;;;;;;2.97;1.45;;;;;;;28.56;33.39;98697.81;6100692;23;20191;-89
2022/09/26 09:27:02;;;;;;;2.28;1.33;;;;;;;28.66;33.13;98694.75;6130099;23;20182;-94
2022/09/26 09:29:43;;;;;;;3.30;1.52;;;;;;;28.83;33.43;98703.25;6130588;23;20233;-93
2022/09/26 09:32:15;;;;;;;3.08;1.38;;;;;;;28.87;33.40;98699.13;6130750;23;20559;-95
2022/09/26 09:34:46;;;;;;;2.28;0.90;;;;;;;28.77;33.51;98698.72;6130058;23;20199;-96
2022/09/26 09:37:28;;;;;;;2.33;1.25;;;;;;;28.95;34.10;98699.75;6106666;23;20616;-93
2022/09/26 09:39:56;;;;;;;2.00;1.17;;;;;;;29.44;33.21;98684.94;6129680;23;20246;-94
2022/09/26 09:42:42;;;;;;;3.65;1.90;;;;;;;29.75;32.60;98688.59;6129936;23;20155;-92
2022/09/26 09:45:50;;;;;;;2.58;1.33;;;;;;;29.81;32.23;98689.66;6130412;23;20159;-92
2022/09/26 09:48:34;;;;;;;1.67;1.00;;;;;;;30.11;32.11;98679.13;6130074;23;20519;-94
2022/09/26 09:51:04;;;;;;;2.10;1.10;;;;;;;30.19;32.67;98679.69;6130430;23;20230;-94
2022/09/26 09:53:42;;;;;;;3.55;1.42;;;;;;;30.20;32.41;98675.09;6130857;23;20237;-94
2022/09/26 09:56:40;;;;;;;3.53;1.60;;;;;;;30.22;32.12;98686.53;6130636;23;20163;-94
2022/09/26 09:59:39;;;;;;;2.20;1.00;;;;;;;30.35;32.49;98667.50;6130188;23;20162;-95
2022/09/26 10:02:33;;;;;;;2.15;1.38;;;;;;;30.52;31.91;98657.88;6131043;23;20154;-94
2022/09/26 10:05:41;;;;;;;1.83;0.95;;;;;;;30.42;32.62;98657.53;6131398;23;20170;-93
2022/09/26 10:08:18;;;;;;;2.22;1.05;;;;;;;30.88;31.22;98659.88;6126220;23;20167;-94
2022/09/26 10:11:13;;;;;;;2.03;0.93;;;;;;;31.12;30.43;98658.22;6129986;23;20546;-94
2022/09/26 10:13:45;;;;;;;2.50;1.27;;;;;;;31.19;29.90;98667.09;6158813;23;20131;-94
2022/09/26 10:16:13;;;;;;;1.70;0.90;;;;;;;31.38;29.94;98653.34;6156572;23;20193;-92
2022/09/26 10:19:06;;;;;;;1.83;1.25;;;;;;;30.94;30.08;98640.91;6130393;23;20151;-91
2022/09/26 10:21:51;;;;;;;;;;;;;;;;;;;;;
2022/09/26 10:24:39;;;;;;;2.45;1.13;;;;;;;31.21;30.79;98632.50;6150325;23;20506;-94
2022/09/26 10:27:24;;;;;;;3.20;1.33;;;;;;;31.51;30.19;98626.16;6107816;23;20166;-95
2022/09/26 10:30:11;;;;;;;1.92;0.90;;;;;;;31.66;30.67;98616.81;6130747;23;20144;-94
2022/09/26 10:33:05;;;;;;;1.45;0.90;;;;;;;31.80;30.73;98613.69;6132784;23;20163;-93
2022/09/26 10:35:44;;;;;;;2.08;1.10;;;;;;;31.65;30.45;98601.59;6129334;23;20244;-93
2022/09/26 10:38:26;;;;;;;1.83;0.80;;;;;;;31.86;30.32;98596.53;6136675;23;20487;-93
2022/09/26 10:41:02;;;;;;;2.83;1.05;;;;;;;32.02;29.71;98590.44;6157674;23;20170;-94
2022/09/26 10:43:33;;;;;;;3.78;1.20;;;;;;;32.08;30.05;98583.28;6151828;23;20214;-93
2022/09/26 10:46:10;;;;;;;1.70;0.95;;;;;;;32.18;28.97;98576.25;6107564;23;20653;-93
2022/09/26 10:49:01;;;;;;;3.67;2.55;;;;;;;32.24;29.20;98577.19;6164013;23;20524;-93
2022/09/26 10:51:45;;;;;;;1.90;0.80;;;;;;;32.28;28.12;98567.56;6056180;23;20621;-95
2022/09/26 10:58:21;;;;;;;38.00;20.00;;;;;;;32.74;27.24;98566.78;6019642;23;20169;-94
2022/09/26 11:03:46;;;;;;;1.80;0.95;;;;;;;32.74;26.10;98562.19;6157366;23;20202;-93
2022/09/26 11:19:51;;;;;;;1.33;0.95;;;;;;;31.92;27.08;98530.50;6014434;23;20275;-94
2022/09/26 11:22:37;;;;;;;5.70;2.20;;;;;;;32.09;27.03;98528.00;5987775;23;20158;-94
2022/09/26 11:25:13;;;;;;;11.48;5.65;;;;;;;31.96;26.91;98525.47;6129147;23;20174;-94
2022/09/26 11:28:27;;;;;;;2.53;1.05;;;;;;;32.05;26.98;98530.34;6139113;23;20151;-93
2022/09/26 11:30:58;;;;;;;6.78;2.50;;;;;;;32.43;26.85;98527.22;6124462;23;20165;-94
2022/09/26 11:33:24;;;;;;;9.18;4.47;;;;;;;32.43;26.91;98515.53;6135611;23;20166;-93
2022/09/26 11:36:32;;;;;;;7.47;3.22;;;;;;;32.42;27.52;98517.41;6165026;23;20143;-94
2022/09/26 11:39:32;;;;;;;8.02;3.15;;;;;;;32.56;27.09;98520.75;6136141;23;20155;-94
2022/09/26 11:42:23;;;;;;;4.07;1.55;;;;;;;32.73;26.64;98510.88;6134567;23;20143;-95
2022/09/26 11:45:09;;;;;;;11.02;3.75;;;;;;;32.89;26.75;98510.09;6139266;23;20167;-95
2022/09/26 11:47:53;;;;;;;6.70;2.40;;;;;;;32.96;26.54;98501.84;6132858;23;20186;-94
2022/09/26 11:50:40;;;;;;;4.82;2.50;;;;;;;32.91;25.40;98494.44;6136200;23;20165;-94
2022/09/26 11:53:36;;;;;;;3.13;1.55;;;;;;;32.80;25.99;98497.97;6137640;23;20558;-92
2022/09/26 11:56:30;;;;;;;4.13;1.30;;;;;;;32.67;26.41;98501.78;6135163;23;20165;-95
2022/09/26 11:59:31;;;;;;;1.83;0.90;;;;;;;32.56;26.41;98499.06;6132620;23;20159;-94
2022/09/26 12:02:39;;;;;;;3.22;1.40;;;;;;;32.55;26.45;98486.53;6134790;23;20290;-93
2022/09/26 12:05:58;;;;;;;2.00;0.95;;;;;;;32.43;27.02;98480.25;6138297;23;20167;-95
2022/09/26 12:08:56;;;;;;;1.98;0.90;;;;;;;32.39;27.44;98468.25;6134089;23;20155;-94
2022/09/26 12:12:01;;;;;;;2.35;0.93;;;;;;;32.50;27.34;98460.09;6146898;23;20148;-96
2022/09/26 12:15:07;;;;;;;1.00;0.70;;;;;;;32.62;26.54;98455.53;6142963;23;20151;-93
2022/09/26 12:18:11;;;;;;;1.95;1.17;;;;;;;33.05;26.68;98470.56;6143005;23;20165;-94
2022/09/26 12:21:28;;;;;;;1.48;0.80;;;;;;;33.06;27.00;98456.75;6143004;23;20179;-93
2022/09/26 12:27:41;;;;;;;2.75;0.95;;;;;;;32.89;27.25;98453.09;6021233;23;20266;-94
2022/09/26 12:30:13;;;;;;;1.58;0.70;;;;;;;33.19;26.77;98440.16;6136956;23;20246;-94
2022/09/26 12:33:49;;;;;;;2.03;0.75;;;;;;;33.10;26.18;98443.53;6169028;23;20147;-95
2022/09/26 12:36:21;;;;;;;1.13;0.60;;;;;;;33.12;26.63;98433.22;6147638;23;20170;-95
2022/09/26 12:42:28;;;;;;;3.20;0.80;;;;;;;32.95;26.96;98421.44;6109151;23;20238;-95
2022/09/26 12:45:21;;;;;;;1.75;0.77;;;;;;;33.00;26.89;98425.09;6144931;23;20179;-95
2022/09/26 12:47:59;;;;;;;2.17;0.80;;;;;;;33.09;26.38;98417.41;6142437;23;20174;-94
2022/09/26 12:51:07;;;;;;;1.10;0.70;;;;;;;33.21;26.61;98416.28;6137483;23;20233;-95
2022/09/26 12:54:22;;;;;;;3.70;0.98;;;;;;;33.41;26.09;98419.38;6145553;23;20224;-96
2022/09/26 12:57:23;;;;;;;1.88;0.68;;;;;;;33.65;26.42;98411.16;6115976;23;20159;-94
2022/09/26 13:00:11;;;;;;;2.22;0.90;;;;;;;33.51;26.34;98401.63;6143160;23;20222;-94
2022/09/26 13:02:49;;;;;;;1.23;0.63;;;;;;;33.33;26.41;98400.75;6134868;23;20207;-93
2022/09/26 13:05:35;;;;;;;2.30;0.90;;;;;;;33.50;26.58;98391.81;6137459;23;20185;-94
2022/09/26 13:11:56;;;;;;;4.18;1.00;;;;;;;33.32;26.42;98387.44;6099200;23;20170;-94
2022/09/26 13:14:36;;;;;;;2.17;0.95;;;;;;;32.93;27.87;98380.97;6140668;23;20159;-94
2022/09/26 13:17:43;;;;;;;4.28;1.90;;;;;;;32.62;28.30;98390.38;6138884;23;20151;-94
2022/09/26 13:20:35;;;;;;;2.00;0.90;;;;;;;32.43;28.35;98396.16;6137582;23;20146;-94
2022/09/26 13:23:33;;;;;;;1.50;0.75;;;;;;;32.45;28.62;98388.59;6146535;23;20190;-94
2022/09/26 13:26:45;;;;;;;3.42;1.30;;;;;;;32.34;28.47;98392.97;6142786;23;20155;-96
2022/09/26 13:35:47;;;;;;;2.90;0.88;;;;;;;31.93;29.40;98380.34;6026359;23;20192;-93
2022/09/26 13:38:46;;;;;;;1.42;0.75;;;;;;;32.19;29.69;98379.91;6138010;23;20626;-93
2022/09/26 13:41:48;;;;;;;3.08;1.08;;;;;;;32.06;29.38;98380.16;6139762;23;20159;-92
2022/09/26 13:45:14;;;;;;;1.88;1.13;;;;;;;32.32;29.57;98386.13;6139663;23;20178;-92
2022/09/26 13:48:24;;;;;;;3.30;1.13;;;;;;;32.07;29.11;98381.81;6046135;23;20180;-93
2022/09/26 13:50:55;;;;;;;1.63;0.95;;;;;;;32.13;29.82;98375.44;6025714;23;20161;-94
2022/09/26 13:53:49;;;;;;;2.25;1.05;;;;;;;31.72;30.06;98385.50;6116445;23;20143;-94
2022/09/26 13:56:48;;;;;;;3.13;1.05;;;;;;;31.84;30.36;98389.88;6161795;23;20139;-94
2022/09/26 14:00:15;;;;;;;3.25;1.13;;;;;;;31.76;30.54;98373.97;6165715;23;20243;-94
2022/09/26 14:02:38;;;;;;;2.50;0.95;;;;;;;31.18;31.22;98373.00;6158805;23;20653;-94
2022/09/26 14:05:45;;;;;;;6.13;0.90;;;;;;;31.06;31.58;98372.13;6142440;23;20195;-94